Time;durP1;ratioP1;P1;durP2;ratioP2;P2;SDS_P1;SDS_P2;PMS_P1;PMS_P2;Temp;Humidity;BMP_temperature;BMP_pressure;BME280_temperature;BME280_humidity;BME280_pressure;Samples;Min_cycle;Max_cycle;Signal;HPM_P1;HPM_P2
2022/06/07 00:02:09;;;;;;;14.90;6.40;;;;;;;;;;5092932;28;20035;-69
2022/06/07 00:04:36;;;;;;;10.45;6.00;;;;;;;;;;5093225;28;20019;-73
2022/06/07 00:07:02;;;;;;;12.30;6.10;;;;;;;;;;5092502;28;20032;-69
2022/06/07 00:09:29;;;;;;;10.32;6.20;;;;;;;;;;5093128;28;20032;-74
2022/06/07 00:11:55;;;;;;;15.32;6.88;;;;;;;;;;5091438;28;20457;-70
2022/06/07 00:14:21;;;;;;;16.73;7.18;;;;;;;;;;5093105;28;20096;-71
2022/06/07 00:16:47;;;;;;;11.27;6.13;;;;;;;;;;5093279;28;20122;-68
2022/06/07 00:19:13;;;;;;;15.52;6.05;;;;;;;;;;5093028;28;20024;-71
2022/06/07 00:21:39;;;;;;;12.75;6.45;;;;;;;;;;5092773;28;20367;-65
2022/06/07 00:24:05;;;;;;;11.23;6.22;;;;;;;;;;5091642;28;20454;-70
2022/06/07 00:26:33;;;;;;;11.13;5.95;;;;;;;;;;5092099;28;20486;-71
2022/06/07 00:29:00;;;;;;;12.98;6.10;;;;;;;;;;5090829;28;20030;-74
2022/06/07 00:31:27;;;;;;;11.10;5.55;;;;;;;;;;5071556;28;20029;-73
2022/06/07 00:33:54;;;;;;;12.15;6.22;;;;;;;;;;5069727;28;20114;-68
2022/06/07 00:36:20;;;;;;;16.90;6.15;;;;;;;;;;5089513;28;20036;-71
2022/06/07 00:38:46;;;;;;;16.48;6.80;;;;;;;;;;5107721;28;20061;-71
2022/06/07 00:41:13;;;;;;;13.60;6.63;;;;;;;;;;5075207;28;20032;-68
2022/06/07 00:43:41;;;;;;;13.65;6.20;;;;;;;;;;5071605;28;20115;-67
2022/06/07 00:46:11;;;;;;;16.83;6.55;;;;;;;;;;5071870;28;20119;-68
2022/06/07 00:48:38;;;;;;;11.23;6.10;;;;;;;;;;5072123;28;20044;-67
2022/06/07 00:51:12;;;;;;;15.00;6.22;;;;;;;;;;5072290;28;20085;-70
2022/06/07 00:53:38;;;;;;;14.27;6.18;;;;;;;;;;5071129;28;20044;-62
2022/06/07 00:56:18;;;;;;;10.75;5.70;;;;;;;;;;5070760;28;20035;-68
2022/06/07 00:58:45;;;;;;;12.73;6.50;;;;;;;;;;5071050;28;20566;-67
2022/06/07 01:01:10;;;;;;;12.00;6.03;;;;;;;;;;5070694;28;20123;-67
2022/06/07 01:03:40;;;;;;;13.88;6.60;;;;;;;;;;5070652;28;20031;-70
2022/06/07 01:11:38;;;;;;;15.60;7.70;;;;;;;;;;5070519;28;20043;-65
2022/06/07 01:14:05;;;;;;;15.45;7.35;;;;;;;;;;5070422;28;20024;-64
2022/06/07 01:16:32;;;;;;;15.32;7.18;;;;;;;;;;5073623;28;20050;-68
2022/06/07 01:18:58;;;;;;;16.00;7.43;;;;;;;;;;5091871;28;20028;-69
2022/06/07 01:21:37;;;;;;;14.65;7.20;;;;;;;;;;5090434;28;20503;-68
2022/06/07 01:24:06;;;;;;;16.25;7.38;;;;;;;;;;5091926;28;20115;-65
2022/06/07 01:26:38;;;;;;;15.70;7.10;;;;;;;;;;5090410;28;20032;-66
2022/06/07 01:29:06;;;;;;;14.82;6.70;;;;;;;;;;5090611;28;20056;-65
2022/06/07 01:31:33;;;;;;;15.38;8.02;;;;;;;;;;5090372;28;20060;-64
2022/06/07 01:34:00;;;;;;;20.30;7.68;;;;;;;;;;5090791;28;20034;-64
2022/06/07 01:36:26;;;;;;;20.23;8.25;;;;;;;;;;5091830;28;20032;-65
2022/06/07 01:41:56;;;;;;;14.18;8.13;;;;;;;;;;5075659;28;20063;-64
2022/06/07 01:44:31;;;;;;;21.50;8.75;;;;;;;;;;5089349;28;20501;-64
2022/06/07 01:47:00;;;;;;;17.90;8.45;;;;;;;;;;5094797;28;20067;-64
2022/06/07 01:49:27;;;;;;;14.48;8.02;;;;;;;;;;5095800;28;20024;-63
2022/06/07 01:51:55;;;;;;;13.50;7.75;;;;;;;;;;5096021;28;20099;-65
2022/06/07 01:54:22;;;;;;;21.80;8.88;;;;;;;;;;5094626;28;20089;-65
2022/06/07 01:56:49;;;;;;;19.60;9.07;;;;;;;;;;5094770;28;20390;-64
2022/06/07 01:59:16;;;;;;;15.80;9.02;;;;;;;;;;5094609;28;20498;-64
2022/06/07 02:01:42;;;;;;;16.80;9.90;;;;;;;;;;5094538;28;20032;-65
2022/06/07 02:04:10;;;;;;;17.33;9.18;;;;;;;;;;5095831;28;20413;-64
2022/06/07 02:06:37;;;;;;;19.27;8.25;;;;;;;;;;5095657;28;20032;-65
2022/06/07 02:09:04;;;;;;;17.33;8.85;;;;;;;;;;5094410;28;20031;-65
2022/06/07 02:11:30;;;;;;;18.92;8.38;;;;;;;;;;5094490;28;20036;-64
2022/06/07 02:14:05;;;;;;;16.67;9.23;;;;;;;;;;5094021;28;20546;-64
2022/06/07 02:16:31;;;;;;;22.33;9.60;;;;;;;;;;5095508;28;20072;-65
2022/06/07 02:18:57;;;;;;;18.10;9.35;;;;;;;;;;5094299;28;20028;-65
2022/06/07 02:21:44;;;;;;;15.90;9.60;;;;;;;;;;5094615;28;20040;-67
2022/06/07 02:24:12;;;;;;;21.42;8.73;;;;;;;;;;5093963;28;20093;-65
2022/06/07 02:27:15;;;;;;;16.25;8.90;;;;;;;;;;5095049;28;20572;-65
2022/06/07 02:29:45;;;;;;;26.13;8.88;;;;;;;;;;5012915;28;20474;-72
2022/06/07 02:32:16;;;;;;;18.40;9.25;;;;;;;;;;5081607;28;20040;-66
2022/06/07 02:34:46;;;;;;;20.00;8.07;;;;;;;;;;5094835;28;20024;-71
2022/06/07 02:37:13;;;;;;;17.25;8.73;;;;;;;;;;5095060;28;20121;-70
2022/06/07 02:39:40;;;;;;;18.85;9.60;;;;;;;;;;5095084;28;20024;-66
2022/06/07 02:42:09;;;;;;;20.55;9.07;;;;;;;;;;5095005;28;20043;-68
2022/06/07 02:44:35;;;;;;;25.27;9.10;;;;;;;;;;5094842;28;20110;-65
2022/06/07 02:47:01;;;;;;;17.88;10.05;;;;;;;;;;5093563;28;20115;-71
2022/06/07 02:49:29;;;;;;;16.13;9.00;;;;;;;;;;5093580;28;20044;-67
2022/06/07 02:51:55;;;;;;;23.38;10.07;;;;;;;;;;5093144;28;20098;-69
2022/06/07 02:54:21;;;;;;;20.40;10.77;;;;;;;;;;5093304;28;20059;-66
2022/06/07 02:56:47;;;;;;;22.35;10.35;;;;;;;;;;5092050;28;20484;-65
2022/06/07 02:59:14;;;;;;;19.42;11.75;;;;;;;;;;5093070;28;20455;-64
2022/06/07 03:01:40;;;;;;;24.95;11.65;;;;;;;;;;5091562;28;20092;-65
2022/06/07 03:04:06;;;;;;;22.58;11.63;;;;;;;;;;5084090;28;20356;-64
2022/06/07 03:06:34;;;;;;;24.52;12.65;;;;;;;;;;5092904;28;20552;-65
2022/06/07 03:09:01;;;;;;;22.30;12.57;;;;;;;;;;5093297;28;20024;-65
2022/06/07 03:11:28;;;;;;;22.80;13.10;;;;;;;;;;5092814;28;20020;-64
2022/06/07 03:13:55;;;;;;;28.70;12.85;;;;;;;;;;5093191;28;20381;-65
2022/06/07 03:16:26;;;;;;;18.42;13.40;;;;;;;;;;5092262;28;20386;-64
2022/06/07 03:18:52;;;;;;;30.02;12.07;;;;;;;;;;5094100;28;20101;-64
2022/06/07 03:21:18;;;;;;;31.17;13.98;;;;;;;;;;5092390;28;20036;-65
2022/06/07 03:23:47;;;;;;;35.38;16.75;;;;;;;;;;5092754;28;20123;-64
2022/06/07 03:26:14;;;;;;;29.65;12.60;;;;;;;;;;5093930;28;20545;-65
2022/06/07 03:28:50;;;;;;;25.85;11.63;;;;;;;;;;5092815;28;20032;-64
2022/06/07 03:31:19;;;;;;;20.73;10.75;;;;;;;;;;5092548;28;20032;-65
2022/06/07 03:33:50;;;;;;;26.67;11.80;;;;;;;;;;5092416;28;20122;-65
2022/06/07 03:36:22;;;;;;;22.27;11.63;;;;;;;;;;5092409;28;20177;-65
2022/06/07 03:38:50;;;;;;;23.90;10.77;;;;;;;;;;5092393;28;20055;-65
2022/06/07 03:41:22;;;;;;;20.95;10.18;;;;;;;;;;5092400;28;20028;-65
2022/06/07 03:43:54;;;;;;;18.80;9.75;;;;;;;;;;5092403;28;20031;-64
2022/06/07 03:46:25;;;;;;;14.93;7.75;;;;;;;;;;5093628;28;20679;-64
2022/06/07 03:48:52;;;;;;;15.45;8.50;;;;;;;;;;5092532;28;20105;-65
2022/06/07 03:51:23;;;;;;;14.32;6.78;;;;;;;;;;5092315;28;20021;-64
2022/06/07 03:53:50;;;;;;;19.65;7.82;;;;;;;;;;5090919;28;20173;-66
2022/06/07 03:56:17;;;;;;;12.93;6.65;;;;;;;;;;5090344;28;20421;-65
2022/06/07 03:58:45;;;;;;;19.83;7.22;;;;;;;;;;5090744;28;20047;-65
2022/06/07 04:01:15;;;;;;;15.43;6.55;;;;;;;;;;5091533;28;20406;-66
2022/06/07 04:03:48;;;;;;;15.95;6.50;;;;;;;;;;5090962;28;20032;-65
2022/06/07 04:06:17;;;;;;;25.95;7.43;;;;;;;;;;5089303;28;20036;-66
2022/06/07 04:08:43;;;;;;;16.52;7.50;;;;;;;;;;5090519;28;20028;-69
2022/06/07 04:11:11;;;;;;;15.30;6.28;;;;;;;;;;5092626;28;20090;-66
2022/06/07 04:13:50;;;;;;;18.45;6.63;;;;;;;;;;5092801;28;20024;-67
2022/06/07 04:16:19;;;;;;;12.77;7.05;;;;;;;;;;5086382;28;20029;-65
2022/06/07 04:18:52;;;;;;;18.85;6.90;;;;;;;;;;5089161;28;20115;-65
2022/06/07 04:21:19;;;;;;;17.08;7.88;;;;;;;;;;5088795;28;20127;-69
2022/06/07 04:23:46;;;;;;;21.73;9.13;;;;;;;;;;5072452;28;20434;-68
2022/06/07 04:26:19;;;;;;;19.17;9.05;;;;;;;;;;5089218;28;20033;-65
2022/06/07 04:28:46;;;;;;;22.70;10.48;;;;;;;;;;5072225;28;20397;-67
2022/06/07 04:31:14;;;;;;;18.13;8.52;;;;;;;;;;5088911;28;20052;-69
2022/06/07 04:33:41;;;;;;;20.08;10.57;;;;;;;;;;5072194;28;20036;-66
2022/06/07 04:36:16;;;;;;;24.40;10.40;;;;;;;;;;5071945;28;20024;-65
2022/06/07 04:38:43;;;;;;;18.30;9.40;;;;;;;;;;5088925;28;20072;-67
2022/06/07 04:41:13;;;;;;;26.13;8.93;;;;;;;;;;5088818;28;20029;-65
2022/06/07 04:43:42;;;;;;;15.93;8.40;;;;;;;;;;5072024;28;20062;-66
2022/06/07 04:46:15;;;;;;;20.98;10.10;;;;;;;;;;5078894;28;20025;-68
2022/06/07 04:48:44;;;;;;;17.27;8.48;;;;;;;;;;5089853;28;20036;-66
2022/06/07 04:51:25;;;;;;;16.15;8.63;;;;;;;;;;5087076;28;20107;-66
2022/06/07 04:54:02;;;;;;;19.15;10.52;;;;;;;;;;5091375;28;20063;-66
2022/06/07 04:56:35;;;;;;;17.33;8.88;;;;;;;;;;5090893;28;20047;-66
2022/06/07 04:59:03;;;;;;;21.30;10.18;;;;;;;;;;5091587;28;20031;-66
2022/06/07 05:01:35;;;;;;;31.15;10.60;;;;;;;;;;5091553;28;20032;-66
2022/06/07 05:04:07;;;;;;;16.92;8.32;;;;;;;;;;5123488;27;20402;-67
2022/06/07 05:06:35;;;;;;;19.80;9.05;;;;;;;;;;5074098;28;20035;-66
2022/06/07 05:09:15;;;;;;;15.32;8.65;;;;;;;;;;5090510;28;20023;-66
2022/06/07 05:11:42;;;;;;;21.60;9.55;;;;;;;;;;5091133;28;20028;-65
2022/06/07 05:14:08;;;;;;;13.32;8.05;;;;;;;;;;5089950;28;20074;-67
2022/06/07 05:16:41;;;;;;;15.35;9.70;;;;;;;;;;5107210;28;20061;-66
2022/06/07 05:19:11;;;;;;;13.48;8.55;;;;;;;;;;5090086;28;20047;-66
2022/06/07 05:21:39;;;;;;;18.13;8.45;;;;;;;;;;5084736;28;20441;-64
2022/06/07 05:24:05;;;;;;;15.75;8.15;;;;;;;;;;5095741;28;20041;-65
2022/06/07 05:26:44;;;;;;;23.77;10.10;;;;;;;;;;5081284;28;20040;-66
2022/06/07 05:29:26;;;;;;;19.90;9.13;;;;;;;;;;5096020;28;20040;-65
2022/06/07 05:31:53;;;;;;;;;;;;;;;;;;5090883;28;20071;-67
2022/06/07 05:34:20;;;;;;;18.10;8.35;;;;;;;;;;5090681;28;20294;-67
2022/06/07 05:36:50;;;;;;;19.73;8.10;;;;;;;;;;5090727;28;20476;-66
2022/06/07 05:39:24;;;;;;;19.35;8.38;;;;;;;;;;5090537;28;20066;-67
2022/06/07 05:41:51;;;;;;;27.52;9.18;;;;;;;;;;5100076;28;20055;-68
2022/06/07 05:44:22;;;;;;;15.63;8.98;;;;;;;;;;5090689;28;20474;-67
2022/06/07 05:46:50;;;;;;;27.42;9.50;;;;;;;;;;5107978;28;20509;-69
2022/06/07 05:49:31;;;;;;;18.67;8.50;;;;;;;;;;5107411;28;20031;-67
2022/06/07 05:52:07;;;;;;;23.38;9.20;;;;;;;;;;5090812;28;20039;-73
2022/06/07 05:54:38;;;;;;;19.85;8.82;;;;;;;;;;5102739;28;20028;-69
2022/06/07 05:57:07;;;;;;;15.38;8.55;;;;;;;;;;5089558;28;20110;-69
2022/06/07 05:59:34;;;;;;;13.88;7.90;;;;;;;;;;5086819;28;20504;-71
2022/06/07 06:02:00;;;;;;;16.45;8.07;;;;;;;;;;5067429;28;20406;-71
2022/06/07 06:04:32;;;;;;;19.00;8.75;;;;;;;;;;5088847;28;20388;-67
2022/06/07 06:07:00;;;;;;;13.98;8.00;;;;;;;;;;5091474;28;20040;-70
2022/06/07 06:12:17;;;;;;;21.90;8.10;;;;;;;;;;5088712;28;20043;-66
2022/06/07 06:14:59;;;;;;;15.88;7.78;;;;;;;;;;5088124;28;20047;-66
2022/06/07 06:17:30;;;;;;;20.08;7.95;;;;;;;;;;5088373;28;20334;-66
2022/06/07 06:20:04;;;;;;;11.05;5.95;;;;;;;;;;5090353;28;20047;-71
2022/06/07 06:22:35;;;;;;;48.58;7.63;;;;;;;;;;5091976;28;20036;-69
2022/06/07 06:25:05;;;;;;;17.50;7.65;;;;;;;;;;5089615;28;20134;-70
2022/06/07 06:27:32;;;;;;;17.63;8.23;;;;;;;;;;5089065;28;20032;-71
2022/06/07 06:30:02;;;;;;;20.20;8.73;;;;;;;;;;5090020;28;20024;-71
2022/06/07 06:32:31;;;;;;;24.60;8.95;;;;;;;;;;5096367;28;20028;-71
2022/06/07 06:34:56;;;;;;;15.20;9.82;;;;;;;;;;5084162;28;20031;-70
2022/06/07 06:37:27;;;;;;;15.77;8.30;;;;;;;;;;5109624;28;20024;-70
2022/06/07 06:39:55;;;;;;;27.58;9.57;;;;;;;;;;5068960;28;20496;-70
2022/06/07 06:42:21;;;;;;;18.40;9.15;;;;;;;;;;5073418;28;20029;-70
2022/06/07 06:45:06;;;;;;;19.95;8.75;;;;;;;;;;5075416;28;20067;-77
2022/06/07 06:47:34;;;;;;;15.38;7.60;;;;;;;;;;5073655;28;20105;-72
2022/06/07 06:50:00;;;;;;;15.55;7.90;;;;;;;;;;5075124;28;20028;-67
2022/06/07 06:52:26;;;;;;;19.50;7.35;;;;;;;;;;5073188;28;20093;-69
2022/06/07 06:54:52;;;;;;;16.20;8.60;;;;;;;;;;5073854;28;20029;-69
2022/06/07 06:57:21;;;;;;;32.30;9.65;;;;;;;;;;5068321;28;20044;-74
2022/06/07 06:59:47;;;;;;;18.70;8.25;;;;;;;;;;5071878;28;20063;-69
2022/06/07 07:02:14;;;;;;;24.05;8.13;;;;;;;;;;5075354;28;20029;-71
2022/06/07 07:05:00;;;;;;;15.00;7.63;;;;;;;;;;5080427;28;20036;-69
2022/06/07 07:07:28;;;;;;;14.05;6.38;;;;;;;;;;5081557;28;20453;-69
2022/06/07 07:09:56;;;;;;;11.32;5.40;;;;;;;;;;5068370;28;20522;-69
2022/06/07 07:12:23;;;;;;;10.20;3.55;;;;;;;;;;5060857;28;20028;-67
2022/06/07 07:15:00;;;;;;;11.90;3.65;;;;;;;;;;5071055;28;20657;-69
2022/06/07 07:17:33;;;;;;;9.70;4.30;;;;;;;;;;5070515;28;20043;-69
2022/06/07 07:20:00;;;;;;;11.05;4.40;;;;;;;;;;5072276;28;21342;-68
2022/06/07 07:22:29;;;;;;;15.57;5.00;;;;;;;;;;5073248;28;20041;-69
2022/06/07 07:24:56;;;;;;;8.27;3.33;;;;;;;;;;5086984;28;20029;-69
2022/06/07 07:27:23;;;;;;;5.35;3.53;;;;;;;;;;5059400;28;20025;-71
2022/06/07 07:29:50;;;;;;;9.13;3.42;;;;;;;;;;5069172;28;20036;-71
2022/06/07 07:32:21;;;;;;;11.35;4.28;;;;;;;;;;5068858;28;20025;-73
2022/06/07 07:34:52;;;;;;;8.63;3.58;;;;;;;;;;5068303;28;20086;-71
2022/06/07 07:37:19;;;;;;;8.63;3.25;;;;;;;;;;5069201;28;20032;-69
2022/06/07 07:39:48;;;;;;;9.60;3.53;;;;;;;;;;5052527;28;20115;-69
2022/06/07 07:42:19;;;;;;;12.15;3.70;;;;;;;;;;5053297;28;20029;-68
2022/06/07 07:44:57;;;;;;;6.57;3.25;;;;;;;;;;5069119;28;20029;-69
2022/06/07 07:47:23;;;;;;;13.98;3.70;;;;;;;;;;5068705;28;20032;-69
2022/06/07 07:49:49;;;;;;;9.10;3.67;;;;;;;;;;5072324;28;20115;-68
2022/06/07 07:52:19;;;;;;;8.65;4.30;;;;;;;;;;5069841;28;20031;-69
2022/06/07 07:54:51;;;;;;;10.00;4.20;;;;;;;;;;5080535;28;20040;-69
2022/06/07 07:57:17;;;;;;;10.23;3.60;;;;;;;;;;5072359;28;20107;-70
2022/06/07 07:59:45;;;;;;;7.25;3.72;;;;;;;;;;5072096;28;20078;-70
2022/06/07 08:02:21;;;;;;;11.05;3.83;;;;;;;;;;5071669;28;20056;-69
2022/06/07 08:04:53;;;;;;;9.55;3.90;;;;;;;;;;5069422;28;20076;-69
2022/06/07 08:07:19;;;;;;;9.32;3.65;;;;;;;;;;5063790;28;20068;-68
2022/06/07 08:09:45;;;;;;;8.63;3.60;;;;;;;;;;5072210;28;20074;-69
2022/06/07 08:12:11;;;;;;;12.05;3.65;;;;;;;;;;5053211;28;20060;-68
2022/06/07 08:14:37;;;;;;;11.75;3.60;;;;;;;;;;5053095;28;20025;-69
2022/06/07 08:17:04;;;;;;;9.25;4.00;;;;;;;;;;5052619;28;20033;-69
2022/06/07 08:19:31;;;;;;;12.75;4.72;;;;;;;;;;5052711;28;20040;-70
2022/06/07 08:21:57;;;;;;;6.10;3.42;;;;;;;;;;5055266;28;20106;-69
2022/06/07 08:24:23;;;;;;;9.32;4.20;;;;;;;;;;5069971;28;20032;-70
2022/06/07 08:26:49;;;;;;;10.82;3.78;;;;;;;;;;5060975;28;20052;-70
2022/06/07 08:29:16;;;;;;;6.57;3.63;;;;;;;;;;5052609;28;20025;-69
2022/06/07 08:31:42;;;;;;;8.60;3.58;;;;;;;;;;5053090;28;20071;-69
2022/06/07 08:39:40;;;;;;;9.40;3.38;;;;;;;;;;5068855;28;20439;-68
2022/06/07 08:42:18;;;;;;;7.82;3.50;;;;;;;;;;5072612;28;20017;-70
2022/06/07 08:45:06;;;;;;;8.50;3.70;;;;;;;;;;5072680;28;20060;-69
2022/06/07 08:47:52;;;;;;;7.10;3.50;;;;;;;;;;5072431;28;20036;-69
2022/06/07 08:50:25;;;;;;;10.35;3.40;;;;;;;;;;5072826;28;20102;-69
2022/06/07 08:52:56;;;;;;;8.55;3.25;;;;;;;;;;5072324;28;20398;-69
2022/06/07 08:55:26;;;;;;;9.80;4.05;;;;;;;;;;5071829;28;20059;-68
2022/06/07 08:58:00;;;;;;;8.13;3.53;;;;;;;;;;5072401;28;20060;-69
2022/06/07 09:00:30;;;;;;;6.78;3.58;;;;;;;;;;5072312;28;20414;-70
2022/06/07 09:03:34;;;;;;;9.60;3.90;;;;;;;;;;5072021;28;20031;-69
2022/06/07 09:06:03;;;;;;;7.32;3.85;;;;;;;;;;5051103;28;20143;-69
2022/06/07 09:08:44;;;;;;;7.55;3.25;;;;;;;;;;5072261;28;20093;-69
2022/06/07 09:14:06;;;;;;;6.68;3.20;;;;;;;;;;5071868;28;20036;-73
2022/06/07 09:16:41;;;;;;;8.80;3.63;;;;;;;;;;5071728;28;20111;-72
2022/06/07 09:19:14;;;;;;;5.20;2.97;;;;;;;;;;5072243;28;20058;-70
2022/06/07 09:21:44;;;;;;;9.55;3.63;;;;;;;;;;5072040;28;20040;-71
2022/06/07 09:24:32;;;;;;;6.05;3.40;;;;;;;;;;5072027;28;20029;-72
2022/06/07 09:27:12;;;;;;;6.43;3.17;;;;;;;;;;5071722;28;20042;-70
2022/06/07 09:29:39;;;;;;;6.00;2.90;;;;;;;;;;5071784;28;20467;-69
2022/06/07 09:32:10;;;;;;;8.07;3.00;;;;;;;;;;5071231;28;20475;-72
2022/06/07 09:34:37;;;;;;;6.32;3.33;;;;;;;;;;5070981;28;20072;-69
2022/06/07 09:37:12;;;;;;;6.00;3.17;;;;;;;;;;5071638;28;20378;-72
2022/06/07 09:39:42;;;;;;;7.93;3.20;;;;;;;;;;5060710;28;20029;-73
2022/06/07 09:42:21;;;;;;;6.35;3.55;;;;;;;;;;5051087;28;20459;-69
2022/06/07 09:44:56;;;;;;;6.80;3.20;;;;;;;;;;5051125;28;20036;-71
2022/06/07 09:47:25;;;;;;;8.75;3.17;;;;;;;;;;5051588;28;20487;-70
2022/06/07 09:49:56;;;;;;;6.25;3.08;;;;;;;;;;5051268;28;20029;-69
2022/06/07 09:52:27;;;;;;;6.85;3.20;;;;;;;;;;5051569;28;20112;-69
2022/06/07 09:55:03;;;;;;;8.20;3.13;;;;;;;;;;5051685;28;20048;-69
2022/06/07 09:57:32;;;;;;;5.32;3.22;;;;;;;;;;5051527;28;20033;-69
2022/06/07 10:00:10;;;;;;;5.25;2.78;;;;;;;;;;5051518;28;20435;-71
2022/06/07 10:03:00;;;;;;;8.07;3.10;;;;;;;;;;5054528;28;20048;-69
2022/06/07 10:05:49;;;;;;;5.03;2.90;;;;;;;;;;5050801;28;20036;-68
2022/06/07 10:08:40;;;;;;;5.60;2.92;;;;;;;;;;5054862;28;20033;-68
2022/06/07 10:11:18;;;;;;;6.45;2.80;;;;;;;;;;5055765;28;20152;-70
2022/06/07 10:14:13;;;;;;;4.47;3.10;;;;;;;;;;5057711;28;20364;-69
2022/06/07 10:17:16;;;;;;;5.68;2.92;;;;;;;;;;5073155;28;20024;-71
2022/06/07 10:20:06;;;;;;;8.85;3.20;;;;;;;;;;5055168;28;20033;-70
2022/06/07 10:22:32;;;;;;;7.00;3.03;;;;;;;;;;5055421;28;20033;-72
2022/06/07 10:25:14;;;;;;;7.03;3.28;;;;;;;;;;5055603;28;20041;-72
2022/06/07 10:27:58;;;;;;;5.47;2.85;;;;;;;;;;5055539;28;20087;-70
2022/06/07 10:31:06;;;;;;;6.05;2.65;;;;;;;;;;5055339;28;20060;-71
2022/06/07 10:33:49;;;;;;;5.07;2.58;;;;;;;;;;5052384;28;20128;-72
2022/06/07 10:36:31;;;;;;;9.75;3.33;;;;;;;;;;5055152;28;20116;-69
2022/06/07 10:39:06;;;;;;;4.67;2.47;;;;;;;;;;5055225;28;20059;-69
2022/06/07 10:41:46;;;;;;;4.53;2.70;;;;;;;;;;5055352;28;20391;-69
2022/06/07 10:44:21;;;;;;;8.65;2.90;;;;;;;;;;5055456;28;20386;-68
2022/06/07 10:46:48;;;;;;;6.95;2.92;;;;;;;;;;5054986;28;20492;-69
2022/06/07 10:49:45;;;;;;;4.85;3.22;;;;;;;;;;5054881;28;20029;-68
2022/06/07 10:52:27;;;;;;;9.85;3.15;;;;;;;;;;5054762;28;20083;-75
2022/06/07 10:55:06;;;;;;;10.00;3.03;;;;;;;;;;5054832;28;20025;-71
2022/06/07 10:57:40;;;;;;;5.57;3.30;;;;;;;;;;5054769;28;20541;-71
2022/06/07 11:00:30;;;;;;;10.27;3.28;;;;;;;;;;5054852;28;20036;-72
2022/06/07 11:03:05;;;;;;;7.03;2.80;;;;;;;;;;5054802;28;20068;-70
2022/06/07 11:11:14;;;;;;;7.13;3.03;;;;;;;;;;5054778;28;20133;-71
2022/06/07 11:14:04;;;;;;;5.53;3.10;;;;;;;;;;5054926;28;20170;-70
2022/06/07 11:17:03;;;;;;;4.78;3.03;;;;;;;;;;5054496;28;20147;-69
2022/06/07 11:19:31;;;;;;;5.00;2.80;;;;;;;;;;5054335;28;20039;-70
2022/06/07 11:22:01;;;;;;;4.82;3.03;;;;;;;;;;5055074;28;20037;-72
2022/06/07 11:24:35;;;;;;;6.72;3.10;;;;;;;;;;5072931;28;20395;-71
2022/06/07 11:27:07;;;;;;;6.20;3.65;;;;;;;;;;5065168;28;20041;-70
2022/06/07 11:29:33;;;;;;;7.47;3.22;;;;;;;;;;5053775;28;20032;-72
2022/06/07 11:32:02;;;;;;;7.40;3.38;;;;;;;;;;5069334;28;20097;-72
2022/06/07 11:34:31;;;;;;;6.97;3.30;;;;;;;;;;5070023;28;20051;-70
2022/06/07 11:37:15;;;;;;;7.07;3.38;;;;;;;;;;5054106;28;20380;-70
2022/06/07 11:39:41;;;;;;;5.70;3.80;;;;;;;;;;5054202;28;20430;-70
2022/06/07 11:42:07;;;;;;;7.07;3.10;;;;;;;;;;5054145;28;20029;-70
2022/06/07 11:44:38;;;;;;;5.93;2.97;;;;;;;;;;5054544;28;20029;-70
2022/06/07 11:47:07;;;;;;;6.43;2.90;;;;;;;;;;5054397;28;20033;-70
2022/06/07 11:49:38;;;;;;;6.10;3.00;;;;;;;;;;5054166;28;20059;-71
2022/06/07 11:52:14;;;;;;;5.33;3.37;;;;;;;;;;5069618;28;20025;-70
2022/06/07 11:54:53;;;;;;;8.82;3.35;;;;;;;;;;5054472;28;20044;-69
2022/06/07 11:57:32;;;;;;;5.63;3.30;;;;;;;;;;5053857;28;20091;-71
2022/06/07 12:00:24;;;;;;;6.10;3.05;;;;;;;;;;5053894;28;20040;-70
2022/06/07 12:03:03;;;;;;;8.15;3.53;;;;;;;;;;5053591;28;20487;-70
2022/06/07 12:05:38;;;;;;;10.88;2.83;;;;;;;;;;5055155;28;20086;-70
2022/06/07 12:08:23;;;;;;;7.75;3.75;;;;;;;;;;5055065;28;20087;-70
2022/06/07 12:11:22;;;;;;;5.25;2.92;;;;;;;;;;5052710;28;20384;-71
2022/06/07 12:13:58;;;;;;;4.57;3.00;;;;;;;;;;5053297;28;20040;-70
2022/06/07 12:16:37;;;;;;;6.00;3.20;;;;;;;;;;5052488;28;20036;-71
2022/06/07 12:19:18;;;;;;;5.22;3.08;;;;;;;;;;5059868;28;20497;-71
2022/06/07 12:21:53;;;;;;;5.95;3.20;;;;;;;;;;5072562;28;20041;-70
2022/06/07 12:24:20;;;;;;;5.15;3.13;;;;;;;;;;5072452;28;20036;-70
2022/06/07 12:26:47;;;;;;;10.02;3.50;;;;;;;;;;5088688;28;20029;-72
2022/06/07 12:29:28;;;;;;;9.00;3.22;;;;;;;;;;5073006;28;20071;-69
2022/06/07 12:31:59;;;;;;;6.50;3.40;;;;;;;;;;5071523;28;20036;-73
2022/06/07 12:34:29;;;;;;;7.93;3.45;;;;;;;;;;5072835;28;20048;-71
2022/06/07 12:36:57;;;;;;;5.88;3.13;;;;;;;;;;5073280;28;20044;-71
2022/06/07 12:39:24;;;;;;;5.22;2.72;;;;;;;;;;5073148;28;20024;-72
2022/06/07 12:42:03;;;;;;;4.82;2.72;;;;;;;;;;5073012;28;20378;-70
2022/06/07 12:44:32;;;;;;;5.10;2.90;;;;;;;;;;5072882;28;20403;-69
2022/06/07 12:47:01;;;;;;;7.57;3.25;;;;;;;;;;5068656;28;20443;-71
2022/06/07 12:49:33;;;;;;;5.65;2.67;;;;;;;;;;5062436;28;20031;-72
2022/06/07 12:52:02;;;;;;;5.30;3.00;;;;;;;;;;5071296;28;20036;-71
2022/06/07 12:54:29;;;;;;;8.45;2.80;;;;;;;;;;5072718;28;20063;-74
2022/06/07 12:56:59;;;;;;;6.18;2.80;;;;;;;;;;5072835;28;20037;-72
2022/06/07 12:59:31;;;;;;;5.28;3.20;;;;;;;;;;5072780;28;20054;-71
2022/06/07 13:01:57;;;;;;;6.05;2.60;;;;;;;;;;5054583;28;20025;-72
2022/06/07 13:04:35;;;;;;;7.05;2.92;;;;;;;;;;5052117;28;20021;-71
2022/06/07 13:07:23;;;;;;;7.68;2.75;;;;;;;;;;5068012;28;20071;-73
2022/06/07 13:09:56;;;;;;;6.93;2.72;;;;;;;;;;5052584;28;20499;-72
2022/06/07 13:12:36;;;;;;;6.03;2.80;;;;;;;;;;5052209;28;20115;-74
2022/06/07 13:15:15;;;;;;;3.47;2.60;;;;;;;;;;5052290;28;20083;-72
2022/06/07 13:18:01;;;;;;;6.03;3.20;;;;;;;;;;5052049;28;20392;-71
2022/06/07 13:20:39;;;;;;;4.93;2.95;;;;;;;;;;5070221;28;20044;-71
2022/06/07 13:23:19;;;;;;;6.03;2.80;;;;;;;;;;5072016;28;20029;-71
2022/06/07 13:25:47;;;;;;;6.47;2.97;;;;;;;;;;5070435;28;20498;-72
2022/06/07 13:28:20;;;;;;;7.30;3.30;;;;;;;;;;5070874;28;20032;-73
2022/06/07 13:30:50;;;;;;;5.18;2.70;;;;;;;;;;5071180;28;20032;-72
2022/06/07 13:33:18;;;;;;;6.47;2.80;;;;;;;;;;5070831;28;20471;-72
2022/06/07 13:35:57;;;;;;;7.30;3.10;;;;;;;;;;5070957;28;20032;-74
2022/06/07 13:38:49;;;;;;;5.72;2.80;;;;;;;;;;5069784;28;20035;-70
2022/06/07 13:41:20;;;;;;;5.28;3.08;;;;;;;;;;5070477;28;20112;-74
2022/06/07 13:44:21;;;;;;;6.55;3.03;;;;;;;;;;5066982;28;20024;-72
2022/06/07 13:47:02;;;;;;;7.82;3.13;;;;;;;;;;5069397;28;20032;-75
2022/06/07 13:55:13;;;;;;;7.72;2.90;;;;;;;;;;5070820;28;20442;-72
2022/06/07 13:57:39;;;;;;;5.82;3.20;;;;;;;;;;5070035;28;20129;-74
2022/06/07 14:00:07;;;;;;;5.68;2.50;;;;;;;;;;5070658;28;20186;-76
2022/06/07 14:02:39;;;;;;;7.10;3.08;;;;;;;;;;5071995;28;20116;-75
2022/06/07 14:05:15;;;;;;;6.22;3.00;;;;;;;;;;5072126;28;20036;-74
2022/06/07 14:07:41;;;;;;;9.35;3.25;;;;;;;;;;5071893;28;20441;-73
2022/06/07 14:10:10;;;;;;;6.32;3.35;;;;;;;;;;5071803;28;20025;-74
2022/06/07 14:12:36;;;;;;;4.85;2.95;;;;;;;;;;5071785;28;20032;-75
2022/06/07 14:15:01;;;;;;;6.20;2.92;;;;;;;;;;5072205;28;20024;-74
2022/06/07 14:17:27;;;;;;;3.95;2.60;;;;;;;;;;5071699;28;20064;-77
2022/06/07 14:19:55;;;;;;;6.22;2.85;;;;;;;;;;5071704;28;20075;-75
2022/06/07 14:22:24;;;;;;;4.90;3.00;;;;;;;;;;5071441;28;20211;-74
2022/06/07 14:24:50;;;;;;;13.27;3.10;;;;;;;;;;5070550;28;20036;-74
2022/06/07 14:27:20;;;;;;;7.20;2.83;;;;;;;;;;5070923;28;20033;-76
2022/06/07 14:29:46;;;;;;;4.93;3.08;;;;;;;;;;5071133;28;20028;-74
2022/06/07 14:32:21;;;;;;;4.22;2.58;;;;;;;;;;5071999;28;20044;-75
2022/06/07 14:34:47;;;;;;;4.90;3.13;;;;;;;;;;5071929;28;20053;-75
2022/06/07 14:37:16;;;;;;;5.25;3.00;;;;;;;;;;5071904;28;20378;-74
2022/06/07 14:39:43;;;;;;;5.13;2.92;;;;;;;;;;5071914;28;20097;-74
2022/06/07 14:42:10;;;;;;;4.22;2.90;;;;;;;;;;5071521;28;20028;-76
2022/06/07 14:44:37;;;;;;;3.67;3.10;;;;;;;;;;5071684;28;20479;-73
2022/06/07 14:47:05;;;;;;;4.82;3.42;;;;;;;;;;5071903;28;20028;-74
2022/06/07 14:49:34;;;;;;;6.18;3.25;;;;;;;;;;5071884;28;20055;-74
2022/06/07 14:52:01;;;;;;;6.50;2.97;;;;;;;;;;5071906;28;20028;-74
2022/06/07 14:54:30;;;;;;;6.03;3.17;;;;;;;;;;5075667;28;20032;-75
2022/06/07 14:56:58;;;;;;;5.85;3.60;;;;;;;;;;5075284;28;20099;-72
2022/06/07 14:59:25;;;;;;;5.88;3.30;;;;;;;;;;5075276;28;20085;-78
2022/06/07 15:01:56;;;;;;;4.55;3.20;;;;;;;;;;5074918;28;20522;-74
2022/06/07 15:04:24;;;;;;;9.27;3.47;;;;;;;;;;5074693;28;20036;-74
2022/06/07 15:06:50;;;;;;;5.55;3.40;;;;;;;;;;5075403;28;20078;-75
2022/06/07 15:09:19;;;;;;;5.70;3.38;;;;;;;;;;5075821;28;20039;-73
2022/06/07 15:11:46;;;;;;;8.68;3.70;;;;;;;;;;5074761;28;20035;-76
2022/06/07 15:14:14;;;;;;;6.95;3.40;;;;;;;;;;5074858;28;20050;-73
2022/06/07 15:16:43;;;;;;;5.10;3.28;;;;;;;;;;5074855;28;20029;-74
2022/06/07 15:19:15;;;;;;;7.30;3.50;;;;;;;;;;5074714;28;20178;-73
2022/06/07 15:21:45;;;;;;;4.13;3.17;;;;;;;;;;5074579;28;20040;-76
2022/06/07 15:24:15;;;;;;;5.50;3.70;;;;;;;;;;5074614;28;20102;-72
2022/06/07 15:26:42;;;;;;;5.70;3.60;;;;;;;;;;5074474;28;20142;-76
2022/06/07 15:29:08;;;;;;;9.40;3.67;;;;;;;;;;5074542;28;20021;-74
2022/06/07 15:31:33;;;;;;;7.93;3.50;;;;;;;;;;5074586;28;20459;-74
2022/06/07 15:34:02;;;;;;;5.72;3.78;;;;;;;;;;5074831;28;20024;-73